NCAR-RAP Real-Time Weather Data

Output produced by METARs form (12 August 2020  17:13 UTC)
found at http://weather.rap.ucar.edu/surface/
 
KHLN 121653Z VRB03KT 10SM CLR 26/03 A2983 RMK AO2 SLP078 T02560028
KHLN 121553Z 08003KT 10SM CLR 23/02 A2982 RMK AO2 SLP077 T02280022
KHLN 121453Z 00000KT 10SM CLR 18/02 A2983 RMK AO2 SLP083 T01780022 50003
KHLN 121353Z 33004KT 10SM CLR 16/02 A2984 RMK AO2 SLP080 T01610022
KHLN 121253Z AUTO 31003KT 10SM CLR 11/03 A2984 RMK AO2 SLP086 T01110033 TSNO
KHLN 121153Z AUTO 22004KT 10SM CLR 14/03 A2983 RMK AO2 SLP075 T01390033 10217 20117 52005 TSNO
KHLN 121053Z AUTO 14003KT 10SM CLR 16/02 A2982 RMK AO2 SLP072 T01560017 TSNO
KHLN 120953Z AUTO 26003KT 10SM CLR 15/02 A2982 RMK AO2 SLP074 T01500017 TSNO
KHLN 120853Z AUTO 00000KT 10SM CLR 17/02 A2981 RMK AO2 SLP069 T01720017 53001
KHLN 120753Z AUTO 14005KT 10SM CLR 19/01 A2979 RMK AO2 SLP064 T01890006
KHLN 120653Z AUTO 00000KT 10SM CLR 19/01 A2981 RMK AO2 SLP071 T01890011 403440117
KHLN 120553Z AUTO 23004KT 10SM CLR 22/M01 A2980 RMK AO2 SLP066 T02171006 10339 20200 50005
KHLN 120453Z AUTO 25007KT 10SM CLR 21/01 A2980 RMK AO2 SLP071 T02110006
KHLN 120353Z AUTO 08004KT 10SM CLR 23/01 A2980 RMK AO2 SLP073 T02280006
KHLN 120253Z AUTO 27007KT 10SM CLR 27/M01 A2979 RMK AO2 SLP066 T02671011 55000
KHLN 120153Z AUTO 29007KT 10SM CLR 31/M02 A2977 RMK AO2 SLP057 T03111022
KHLN 120053Z AUTO 30012KT 10SM CLR 33/M02 A2977 RMK AO2 SLP057 T03281022
KHLN 112353Z AUTO 30006KT 10SM CLR 33/M01 A2979 RMK AO2 SLP062 T03331006 10344 20272 56017
KHLN 112253Z AUTO 18009G14KT 10SM CLR 32/02 A2980 RMK AO2 SLP068 T03220022
KHLN 112153Z AUTO 08005KT 10SM CLR 31/03 A2982 RMK AO2 SLP073 T03110033
KHLN 112053Z 08005KT 10SM CLR 31/03 A2984 RMK AO2 SLP084 T03060033 58021
KHLN 111953Z VRB04KT 10SM CLR 30/04 A2987 RMK AO2 SLP090 T03000039
KHLN 111853Z 06008KT 10SM CLR 29/04 A2989 RMK AO2 SLP100 T02890039
KHLN 111753Z 07007KT 10SM CLR 28/04 A2991 RMK AO2 SLP108 T02780044 10278 20122 58015
KHLN 111653Z 05006KT 10SM CLR 24/06 A2994 RMK AO2 SLP119 T02440056
KHLN 111553Z 00000KT 10SM CLR 21/05 A2995 RMK AO2 SLP121 T02060050
KHLN 111453Z 00000KT 10SM CLR 18/05 A2996 RMK AO2 SLP128 T01780050 50002
KHLN 111353Z 00000KT 10SM CLR 16/05 A2998 RMK AO2 SLP133 T01560050
KHLN 111253Z AUTO 15004KT 10SM CLR 14/05 A2998 RMK AO2 SLP133 T01390050
KHLN 111153Z AUTO 28003KT 10SM CLR 14/04 A2996 RMK AO2 SLP123 T01390044 10206 20117 53001
KHLN 111053Z AUTO 30003KT 10SM CLR 14/04 A2994 RMK AO2 SLP119 T01390044
KHLN 110953Z AUTO 00000KT 10SM CLR 16/04 A2995 RMK AO2 SLP122 T01610039
KHLN 110853Z AUTO 00000KT 10SM CLR 16/04 A2995 RMK AO2 SLP122 T01560039 51004
KHLN 110753Z AUTO 00000KT 10SM CLR 17/04 A2995 RMK AO2 SLP121 T01720039
KHLN 110653Z AUTO 28009KT 10SM CLR 18/04 A2995 RMK AO2 SLP123 T01780039 403110128
KHLN 110553Z AUTO 00000KT 10SM CLR 19/03 A2994 RMK AO2 SLP119 T01890033 10311 20189 50002
KHLN 110453Z AUTO 29007KT 10SM CLR 20/02 A2996 RMK AO2 SLP125 T02000022
KHLN 110353Z AUTO 00000KT 10SM CLR 25/02 A2995 RMK AO2 SLP119 T02500017
KHLN 110253Z AUTO 26006KT 10SM CLR 25/02 A2993 RMK AO2 SLP116 T02500022 55003
KHLN 110153Z AUTO 29009KT 10SM CLR 29/02 A2992 RMK AO2 SLP112 T02890017
KHLN 110053Z AUTO 26014G19KT 10SM CLR 31/01 A2992 RMK AO2 SLP113 T03060006
KHLN 102353Z AUTO 26012G20KT 10SM CLR 31/02 A2994 RMK AO2 SLP118 T03110017 10311 20250 58019
KHLN 102253Z AUTO 28011KT 10SM CLR 31/02 A2996 RMK AO2 SLP124 T03110017
KHLN 102153Z AUTO 24009G15KT 10SM CLR 29/02 A2999 RMK AO2 SLP131 T02940022
KHLN 102053Z 30008G15KT 10SM CLR 29/03 A3001 RMK AO2 SLP138 T02940028 58020
KHLN 101953Z 27009G16KT 240V310 10SM CLR 28/02 A3003 RMK AO2 SLP148 T02780022
KHLN 101853Z 25006G15KT 10SM CLR 26/02 A3005 RMK AO2 SLP157 T02610022
KHLN 101753Z 29010G17KT 10SM CLR 25/02 A3007 RMK AO2 SLP166 T02500022 10256 20128 58016